Roanoke, Louisiana
Current Conditions -  °F | °C
As of 10:15 PM on Thursday 27 Nov 2014 (Local Time) from K3R7 Reporting Station
Clear Clear  
Wind Chill: 39°   Ceiling: Unl
Heat Index: 43°   Visibility: 10mi
Dew Point: 35°   Wind: 7mph
Humidity: 74%   Direction: 70°ENE
Pressure: 30.45"   Gusts: NA
Location:  30.24°N, 92.75°W
Report Text: K3R7 280415Z AUTO 07006KT 10SM CLR 06/02 A3045 RMK AO2 T00600017
Loading
Personal Weather Stations






























Interactive Weather Map New forecast layout! Learn more

10-Day Weather Forecast

Advertisements
Track Severe Weather on mobile